首页
METAR-TAF:

METAR-TAF

机场 :

吉隆坡国际机场

吉隆坡, 马来西亚

纬度: 02-44N, 经度: 101-42E, 海拔: 21米

当前天气观测

该预报发布于17分钟前的11:00 UTC
风速10节,风向西南,在西转西北之间变化
温度 26°C
湿度 89%
气压 1006 hPa
能見度: 6000
少量云层高于800英尺
少量云层高于1700英尺, 积雨云.
散云层高于2800英尺
多云层高于28000英尺
雷暴, 小雨

METAR: WMKK 201100Z 23010KT 190V290 6000 -TSRA FEW008 FEW017CB SCT028 BKN280 26/24 Q1006 NOSIG

时间: 19:17 (11:17 UTC)

预报

该预报发布于6小时和17分钟前的05:00 UTC
预报有效从20日的 06点(UTC)到 21日的 12点(UTC)
风速3节,风向多变
能见度10公里或以上
少量云层高于1700英尺, 积雨云.
短暂存在
从 20日的 08点(UTC)到 20日的 12点(UTC)
风速5节,风向北转西北
能見度: 3000
少量云层高于1000英尺
少量云层高于1600英尺, 积雨云.
散云层高于1800英尺
雷暴, 雨
成为
从 20日的 13点(UTC)到 20日的 15点(UTC)
风速3节,风向多变
能見度: 8000
少量云层高于3000英尺
几率 30% :
短暂存在
从 20日的 19点(UTC)到 20日的 23点(UTC)
能見度: 5000
少量云层高于1700英尺, 积雨云.
雷暴, 雨
成为
从 21日的 00点(UTC)到 21日的 02点(UTC)
风速3节,风向北转东北
能見度: 9000

TAF: WMKK 200500Z 2006/2112 VRB03KT 9999 FEW017CB TEMPO 2008/2012 34005KT 3000 TSRA FEW010 FEW016CB SCT018 BECMG 2013/2015 VRB03KT 8000 FEW030 PROB30 TEMPO 2019/2023 5000 TSRA FEW017CB BECMG 2100/2102 02003KT 9000

超过4000个机场的气象观测和天气预报(METAR&TAF报告)。

可查询的气象台以黄色和红色小点在地图上表示。

将鼠标移到小点上方,可查看气象台名称。

然后点击查看天气观测和预报。

如需切换地图:点击带黑十字的绿色按钮放大地图;点击带横线的绿色按钮缩小地图;或者点击绿色箭头查看邻近地区的地图。


METAR-TAF: